createdAt,value
2024-04-07T00:00:08.375Z,129.90
2024-04-07T00:01:08.462Z,128.29
2024-04-07T00:02:08.569Z,126.90
2024-04-07T00:03:08.666Z,128.58
2024-04-07T00:04:08.790Z,127.34
2024-04-07T00:05:08.890Z,125.91
2024-04-07T00:06:08.969Z,126.13
2024-04-07T00:07:09.088Z,123.89
2024-04-07T00:08:09.183Z,126.82
2024-04-07T00:09:09.295Z,125.00
2024-04-07T00:10:09.407Z,126.47
2024-04-07T00:11:09.521Z,128.02
2024-04-07T00:12:09.634Z,125.12
2024-04-07T00:13:09.716Z,127.48
2024-04-07T00:14:09.814Z,124.30
2024-04-07T00:15:09.920Z,125.10
2024-04-07T00:16:10.000Z,124.77
2024-04-07T00:17:10.115Z,126.24
2024-04-07T00:18:10.230Z,126.83
2024-04-07T00:19:10.336Z,125.26
2024-04-07T00:20:10.451Z,126.21
2024-04-07T00:21:10.546Z,124.16
2024-04-07T00:22:10.654Z,123.33
2024-04-07T00:23:10.766Z,125.43
2024-04-07T00:24:10.845Z,123.61
2024-04-07T00:25:10.960Z,123.47
2024-04-07T00:26:11.073Z,122.96
2024-04-07T00:27:11.172Z,123.12
2024-04-07T00:28:11.273Z,123.93
2024-04-07T00:29:11.383Z,122.70
2024-04-07T00:30:11.496Z,121.63
2024-04-07T00:31:11.588Z,121.30
2024-04-07T00:32:11.676Z,117.10
2024-04-07T00:33:11.778Z,119.33
2024-04-07T00:34:11.908Z,116.16
2024-04-07T00:35:12.002Z,117.50
2024-04-07T00:36:12.139Z,116.55
2024-04-07T00:37:12.211Z,117.31
2024-04-07T00:38:12.311Z,114.00
2024-04-07T00:39:12.396Z,114.19
2024-04-07T00:40:12.521Z,114.96
2024-04-07T00:41:12.617Z,114.99
2024-04-07T00:42:12.693Z,112.21
2024-04-07T00:43:12.803Z,114.05
2024-04-07T00:44:12.912Z,115.27
2024-04-07T00:45:13.017Z,111.91
2024-04-07T00:46:13.129Z,111.43
2024-04-07T00:47:13.216Z,109.05
2024-04-07T00:48:13.319Z,112.94
2024-04-07T00:49:13.436Z,110.88
2024-04-07T00:50:13.535Z,110.00
2024-04-07T00:51:13.637Z,110.47
2024-04-07T00:52:13.743Z,110.55
2024-04-07T00:53:13.842Z,110.74
2024-04-07T00:54:13.951Z,108.60
2024-04-07T00:55:14.078Z,110.42
2024-04-07T00:56:14.143Z,105.08
2024-04-07T00:57:14.291Z,108.18
2024-04-07T00:58:14.339Z,108.66
2024-04-07T00:59:14.450Z,108.58
2024-04-07T01:00:14.565Z,105.75
2024-04-07T01:01:14.675Z,106.06
2024-04-07T01:02:14.751Z,106.84
2024-04-07T01:03:14.902Z,105.86
2024-04-07T01:04:14.998Z,107.63
2024-04-07T01:05:15.100Z,105.89
2024-04-07T01:06:15.211Z,103.89
2024-04-07T01:07:15.329Z,102.75
2024-04-07T01:08:15.431Z,105.34
2024-04-07T01:09:15.505Z,102.55
2024-04-07T01:10:15.619Z,106.28
2024-04-07T01:11:15.735Z,103.43
2024-04-07T01:12:15.858Z,103.88
2024-04-07T01:13:15.942Z,105.68
2024-04-07T01:14:16.048Z,100.11
2024-04-07T01:15:16.166Z,101.86
2024-04-07T01:16:16.262Z,102.85
2024-04-07T01:17:16.366Z,100.37
2024-04-07T01:18:16.478Z,98.68
2024-04-07T01:19:16.576Z,97.30
2024-04-07T01:20:16.686Z,98.06
2024-04-07T01:21:16.792Z,94.22
2024-04-07T01:22:16.904Z,96.53
2024-04-07T01:23:17.019Z,97.04
2024-04-07T01:24:17.139Z,96.11
2024-04-07T01:25:17.192Z,94.56
2024-04-07T01:26:17.322Z,96.07
2024-04-07T01:27:17.405Z,93.32
2024-04-07T01:28:17.514Z,93.69
2024-04-07T01:29:17.606Z,92.89
2024-04-07T01:30:17.712Z,92.78
2024-04-07T01:31:17.813Z,94.76
2024-04-07T01:32:17.922Z,91.69
2024-04-07T01:33:18.034Z,90.74
2024-04-07T01:34:18.172Z,91.71
2024-04-07T01:35:18.230Z,90.07
2024-04-07T01:36:18.334Z,90.31
2024-04-07T01:37:18.436Z,89.25
2024-04-07T01:38:18.651Z,89.59
2024-04-07T01:39:18.652Z,89.30
2024-04-07T01:40:18.757Z,87.65
2024-04-07T01:41:18.877Z,87.94
2024-04-07T01:42:18.963Z,85.21
2024-04-07T01:43:19.048Z,85.68
2024-04-07T01:44:19.168Z,81.55
2024-04-07T01:45:19.266Z,78.88
2024-04-07T01:46:19.382Z,79.40
2024-04-07T01:47:19.491Z,80.79
2024-04-07T01:48:19.605Z,78.95
2024-04-07T01:49:19.685Z,78.40
2024-04-07T01:50:19.797Z,75.31
2024-04-07T01:51:19.932Z,74.88
2024-04-07T01:52:20.016Z,73.92
2024-04-07T01:53:20.100Z,75.30
2024-04-07T01:54:20.214Z,74.04
2024-04-07T01:55:20.296Z,71.74
2024-04-07T01:56:20.405Z,69.21
2024-04-07T01:57:20.524Z,68.07
2024-04-07T01:58:20.622Z,70.42
2024-04-07T01:59:20.733Z,70.06
2024-04-07T02:00:20.865Z,68.99
2024-04-07T02:01:20.957Z,67.35
2024-04-07T02:02:21.043Z,69.00
2024-04-07T02:03:21.147Z,65.58
2024-04-07T02:04:21.262Z,65.26
2024-04-07T02:05:21.395Z,65.17
2024-04-07T02:06:21.469Z,63.78
2024-04-07T02:07:21.574Z,64.63
2024-04-07T02:08:21.687Z,64.99
2024-04-07T02:09:21.798Z,64.10
2024-04-07T02:10:21.900Z,63.75
2024-04-07T02:11:22.010Z,62.98
2024-04-07T02:12:22.119Z,62.13
2024-04-07T02:13:22.231Z,59.92
2024-04-07T02:14:22.335Z,61.40
2024-04-07T02:15:22.419Z,58.65
2024-04-07T02:16:22.536Z,60.75
2024-04-07T02:17:22.621Z,59.35
2024-04-07T02:18:22.742Z,59.93
2024-04-07T02:19:22.841Z,58.32
2024-04-07T02:20:22.931Z,59.80
2024-04-07T02:21:23.048Z,58.28
2024-04-07T02:22:23.156Z,54.83
2024-04-07T02:23:23.261Z,53.41
2024-04-07T02:24:23.367Z,52.33
2024-04-07T02:25:23.471Z,50.00
2024-04-07T02:26:23.566Z,50.56
2024-04-07T02:27:23.678Z,50.97
2024-04-07T02:28:23.763Z,52.23
2024-04-07T02:29:23.869Z,52.08
2024-04-07T02:30:23.984Z,50.02
2024-04-07T02:31:24.094Z,50.22
2024-04-07T02:32:24.970Z,51.66
2024-04-07T02:33:24.312Z,50.35
2024-04-07T02:34:24.415Z,51.55
2024-04-07T02:35:24.504Z,52.74
2024-04-07T02:37:09.351Z,50.00
2024-04-07T02:38:09.388Z,50.00
2024-04-07T02:39:09.504Z,50.00
2024-04-07T02:40:09.340Z,50.00
2024-04-07T02:41:09.292Z,50.00
2024-04-07T02:42:09.295Z,52.23
2024-04-07T02:43:09.294Z,51.72
2024-04-07T02:44:09.380Z,50.15
2024-04-07T02:45:09.512Z,53.16
2024-04-07T02:46:09.507Z,50.22
2024-04-07T02:47:09.357Z,50.00
2024-04-07T02:48:09.351Z,50.08
2024-04-07T02:49:09.353Z,53.55
2024-04-07T02:50:09.407Z,51.70
2024-04-07T02:51:09.418Z,53.25
2024-04-07T02:52:09.371Z,51.59
2024-04-07T02:53:09.553Z,50.52
2024-04-07T02:54:09.536Z,51.42
2024-04-07T02:55:09.401Z,53.35
2024-04-07T02:56:09.372Z,52.15
2024-04-07T02:57:09.371Z,52.62
2024-04-07T02:58:09.382Z,50.00
2024-04-07T02:59:09.411Z,53.32
2024-04-07T03:00:09.497Z,54.05
2024-04-07T03:01:09.562Z,54.02
2024-04-07T03:02:09.672Z,52.50
2024-04-07T03:03:09.773Z,51.40
2024-04-07T03:04:09.888Z,51.66
2024-04-07T03:05:09.986Z,51.07
2024-04-07T03:06:10.100Z,52.12
2024-04-07T03:07:10.203Z,51.03
2024-04-07T03:08:10.317Z,51.29
2024-04-07T03:09:10.427Z,53.05
2024-04-07T03:10:10.509Z,51.10
2024-04-07T03:11:10.636Z,51.65
2024-04-07T03:12:10.736Z,52.90
2024-04-07T03:13:10.827Z,53.14
2024-04-07T03:14:10.938Z,54.38
2024-04-07T03:15:11.026Z,53.20
2024-04-07T03:16:11.144Z,51.92
2024-04-07T03:17:11.259Z,52.88
2024-04-07T03:18:11.305Z,53.50
2024-04-07T03:19:11.427Z,53.52
2024-04-07T03:20:11.547Z,50.00
2024-04-07T03:21:11.632Z,55.45
2024-04-07T03:22:11.740Z,52.90
2024-04-07T03:23:11.835Z,54.42
2024-04-07T03:24:11.960Z,53.60
2024-04-07T03:25:12.051Z,56.10
2024-04-07T03:26:12.167Z,57.71
2024-04-07T03:27:12.271Z,58.74
2024-04-07T03:28:12.364Z,55.53
2024-04-07T03:29:12.510Z,57.82
2024-04-07T03:30:12.575Z,58.79
2024-04-07T03:31:12.680Z,56.95
2024-04-07T03:32:12.789Z,57.08
2024-04-07T03:33:12.883Z,58.97
2024-04-07T03:34:13.000Z,55.42
2024-04-07T03:35:13.095Z,57.12
2024-04-07T03:36:13.207Z,58.34
2024-04-07T03:37:13.398Z,58.19
2024-04-07T03:38:13.417Z,60.55
2024-04-07T03:39:13.528Z,59.42
2024-04-07T03:40:13.668Z,61.18
2024-04-07T03:41:13.775Z,60.59
2024-04-07T03:42:13.893Z,62.41
2024-04-07T03:43:13.991Z,61.61
2024-04-07T03:44:14.098Z,61.25
2024-04-07T03:45:14.202Z,61.13
2024-04-07T03:46:14.275Z,62.18
2024-04-07T03:47:14.402Z,61.45
2024-04-07T03:48:14.511Z,61.31
2024-04-07T03:49:14.596Z,61.07
2024-04-07T03:50:14.711Z,59.54
2024-04-07T03:51:14.835Z,60.72
2024-04-07T03:52:14.928Z,60.20
2024-04-07T03:53:15.040Z,60.29
2024-04-07T03:54:15.119Z,61.44
2024-04-07T03:55:15.244Z,63.49
2024-04-07T03:56:15.366Z,63.12
2024-04-07T03:57:15.427Z,64.79
2024-04-07T03:58:15.557Z,64.93
2024-04-07T03:59:15.649Z,63.05
2024-04-07T04:00:15.753Z,62.80
2024-04-07T04:01:15.855Z,63.35
2024-04-07T04:02:15.955Z,64.38
2024-04-07T04:03:16.054Z,63.82
2024-04-07T04:04:16.164Z,65.78
2024-04-07T04:05:16.285Z,64.19
2024-04-07T04:06:16.409Z,66.07
2024-04-07T04:07:16.508Z,64.53
2024-04-07T04:08:16.606Z,63.11
2024-04-07T04:09:16.706Z,65.35
2024-04-07T04:10:16.851Z,64.70
2024-04-07T04:11:16.935Z,64.26
2024-04-07T04:12:17.030Z,66.43
2024-04-07T04:13:17.177Z,67.11
2024-04-07T04:14:17.271Z,65.38
2024-04-07T04:15:17.371Z,63.89
2024-04-07T04:16:17.496Z,64.75
2024-04-07T04:17:17.565Z,66.81
2024-04-07T04:18:17.698Z,66.55
2024-04-07T04:19:17.915Z,65.98
2024-04-07T04:20:17.920Z,66.86
2024-04-07T04:21:18.012Z,67.09
2024-04-07T04:22:18.100Z,66.84
2024-04-07T04:23:18.219Z,64.16
2024-04-07T04:24:18.326Z,65.24
2024-04-07T04:25:18.437Z,65.64
2024-04-07T04:26:18.531Z,66.63
2024-04-07T04:27:18.660Z,65.34
2024-04-07T04:28:18.771Z,66.43
2024-04-07T04:29:18.869Z,65.53
2024-04-07T04:30:18.939Z,69.01
2024-04-07T04:31:19.090Z,69.40
2024-04-07T04:32:19.206Z,68.23
2024-04-07T04:33:26.926Z,50.00
2024-04-07T04:34:26.932Z,50.00
2024-04-07T04:35:26.942Z,50.00
2024-04-07T04:36:26.931Z,50.00
2024-04-07T04:37:26.931Z,50.00
2024-04-07T04:38:26.938Z,51.74
2024-04-07T04:39:26.961Z,52.29
2024-04-07T04:40:26.958Z,51.54
2024-04-07T04:41:26.963Z,51.03
2024-04-07T04:42:26.931Z,50.95
2024-04-07T04:43:26.975Z,52.23
2024-04-07T04:44:26.954Z,52.76
2024-04-07T04:45:26.948Z,52.87
2024-04-07T04:46:26.958Z,53.82
2024-04-07T04:47:26.976Z,54.76
2024-04-07T04:48:26.990Z,53.21
2024-04-07T04:49:27.002Z,53.35
2024-04-07T04:50:27.001Z,52.91
2024-04-07T04:51:27.009Z,52.42
2024-04-07T04:52:27.008Z,54.31
2024-04-07T04:53:27.007Z,52.96
2024-04-07T04:54:27.012Z,52.51
2024-04-07T04:55:27.015Z,51.93
2024-04-07T04:56:27.041Z,51.56
2024-04-07T04:57:27.003Z,52.88
2024-04-07T04:58:27.002Z,51.66
2024-04-07T04:59:26.993Z,52.00
2024-04-07T05:00:27.012Z,51.66
2024-04-07T05:01:27.073Z,53.21
2024-04-07T05:02:27.192Z,53.39
2024-04-07T05:03:27.301Z,52.85
2024-04-07T05:04:27.389Z,52.29
2024-04-07T05:05:28.150Z,53.59
2024-04-07T05:06:27.633Z,52.99
2024-04-07T05:07:27.730Z,53.78
2024-04-07T05:08:27.808Z,53.29
2024-04-07T05:09:27.901Z,53.74
2024-04-07T05:10:28.028Z,54.17
2024-04-07T05:11:28.131Z,52.71
2024-04-07T05:12:28.252Z,53.66
2024-04-07T05:13:28.340Z,53.79
2024-04-07T05:14:28.447Z,53.47
2024-04-07T05:15:28.535Z,55.07
2024-04-07T05:16:28.632Z,56.56
2024-04-07T05:17:28.841Z,53.45
2024-04-07T05:18:28.851Z,55.60
2024-04-07T05:19:28.960Z,52.21
2024-04-07T05:20:29.068Z,52.17
2024-04-07T05:21:29.186Z,54.92
2024-04-07T05:22:29.286Z,57.87
2024-04-07T05:23:29.386Z,55.15
2024-04-07T05:24:29.504Z,55.03
2024-04-07T05:25:29.590Z,56.27
2024-04-07T05:26:29.719Z,54.81
2024-04-07T05:27:29.820Z,56.77
2024-04-07T05:28:29.930Z,54.95
2024-04-07T05:29:30.066Z,53.44
2024-04-07T05:30:30.196Z,55.90
2024-04-07T05:31:30.274Z,55.74
2024-04-07T05:32:30.400Z,57.56
2024-04-07T05:33:30.493Z,58.21
2024-04-07T05:34:30.584Z,59.51
2024-04-07T05:35:30.678Z,59.42
2024-04-07T05:36:30.813Z,60.83
2024-04-07T05:37:30.924Z,59.55
2024-04-07T05:38:31.034Z,60.04
2024-04-07T05:39:31.144Z,58.65
2024-04-07T05:40:31.227Z,61.34
2024-04-07T05:41:31.332Z,60.74
2024-04-07T05:42:31.446Z,61.47
2024-04-07T05:43:31.552Z,59.15
2024-04-07T05:44:31.665Z,60.30
2024-04-07T05:45:31.780Z,61.43
2024-04-07T05:46:31.886Z,62.05
2024-04-07T05:47:31.993Z,62.44
2024-04-07T05:48:32.120Z,61.47
2024-04-07T05:49:33.182Z,61.54
2024-04-07T05:50:32.328Z,60.32
2024-04-07T05:51:32.436Z,61.91
2024-04-07T05:52:32.537Z,61.08
2024-04-07T05:53:32.649Z,62.83
2024-04-07T05:54:32.750Z,59.18
2024-04-07T05:55:32.840Z,62.21
2024-04-07T05:56:32.976Z,64.70
2024-04-07T05:57:33.055Z,62.70
2024-04-07T05:58:33.171Z,60.30
2024-04-07T05:59:33.285Z,63.38
2024-04-07T06:00:33.401Z,64.00
2024-04-07T06:01:33.492Z,65.29
2024-04-07T06:02:33.588Z,64.49
2024-04-07T06:03:33.707Z,66.20
2024-04-07T06:04:33.808Z,63.50
2024-04-07T06:05:33.923Z,64.10
2024-04-07T06:06:34.042Z,63.74
2024-04-07T06:07:34.136Z,65.26
2024-04-07T06:08:34.255Z,64.01
2024-04-07T06:09:34.348Z,60.61
2024-04-07T06:10:34.448Z,59.05
2024-04-07T06:11:34.555Z,60.00
2024-04-07T06:12:34.658Z,62.53
2024-04-07T06:13:34.802Z,63.16
2024-04-07T06:14:34.890Z,64.53
2024-04-07T06:15:35.020Z,63.06
2024-04-07T06:16:35.086Z,64.37
2024-04-07T06:17:35.253Z,62.53
2024-04-07T06:18:35.301Z,63.25
2024-04-07T06:19:35.442Z,62.99
2024-04-07T06:20:35.548Z,62.05
2024-04-07T06:21:35.669Z,63.99
2024-04-07T06:22:35.754Z,62.67
2024-04-07T06:23:35.861Z,63.04
2024-04-07T06:24:35.969Z,60.79
2024-04-07T06:25:36.081Z,61.71
2024-04-07T06:26:36.177Z,60.82
2024-04-07T06:27:36.259Z,61.10
2024-04-07T06:28:36.376Z,62.03
2024-04-07T06:29:36.455Z,61.45
2024-04-07T06:30:36.554Z,61.94
2024-04-07T06:31:36.677Z,61.35
2024-04-07T06:32:36.823Z,62.37
2024-04-07T06:33:36.916Z,62.90
2024-04-07T06:34:36.991Z,63.99
2024-04-07T06:35:37.088Z,62.83
2024-04-07T06:36:37.273Z,65.99
2024-04-07T06:37:37.318Z,68.37
2024-04-07T06:38:37.410Z,68.86
2024-04-07T06:39:37.529Z,72.16
2024-04-07T06:40:37.606Z,69.38
2024-04-07T06:41:37.724Z,72.82
2024-04-07T06:42:37.815Z,73.80
2024-04-07T06:43:37.939Z,73.16
2024-04-07T06:44:38.050Z,73.29
2024-04-07T06:45:38.157Z,74.95
2024-04-07T06:46:38.234Z,72.05
2024-04-07T06:47:38.317Z,70.96
2024-04-07T06:48:38.432Z,69.76
2024-04-07T06:49:38.532Z,68.58
2024-04-07T06:50:38.653Z,69.46
2024-04-07T06:51:38.762Z,68.88
2024-04-07T06:52:38.823Z,65.40
2024-04-07T06:53:38.956Z,63.90
2024-04-07T06:54:39.031Z,62.60
2024-04-07T06:55:39.148Z,61.01
2024-04-07T06:56:39.274Z,59.78
2024-04-07T06:57:39.391Z,59.74
2024-04-07T06:58:39.482Z,58.84
2024-04-07T06:59:39.565Z,60.44
2024-04-07T07:00:39.664Z,55.52
2024-04-07T07:01:39.788Z,55.45
2024-04-07T07:02:39.912Z,55.51
2024-04-07T07:03:40.056Z,55.60
2024-04-07T07:04:40.103Z,56.64
2024-04-07T07:05:40.207Z,53.88
2024-04-07T07:06:40.313Z,53.92
2024-04-07T07:07:40.382Z,53.61
2024-04-07T07:08:40.490Z,53.85
2024-04-07T07:09:40.597Z,52.65
2024-04-07T07:10:40.698Z,54.78
2024-04-07T07:11:40.810Z,52.07
2024-04-07T07:12:40.887Z,52.16
2024-04-07T07:13:41.008Z,55.76
2024-04-07T07:14:41.100Z,55.35
2024-04-07T07:15:41.220Z,52.92
2024-04-07T07:16:41.303Z,61.13
2024-04-07T07:17:41.376Z,60.63
2024-04-07T07:18:41.478Z,62.46
2024-04-07T07:19:41.575Z,62.41
2024-04-07T07:20:41.691Z,62.68
2024-04-07T07:21:41.767Z,60.20
2024-04-07T07:22:41.849Z,61.00
2024-04-07T07:23:41.931Z,58.17
2024-04-07T07:24:42.046Z,61.63
2024-04-07T07:25:42.164Z,62.46
2024-04-07T07:26:43.026Z,62.23
2024-04-07T07:27:42.327Z,63.88
2024-04-07T07:28:42.429Z,62.19
2024-04-07T07:29:42.521Z,62.17
2024-04-07T07:30:42.592Z,63.29
2024-04-07T07:31:42.708Z,62.75
2024-04-07T07:32:42.809Z,61.55
2024-04-07T07:33:42.882Z,67.66
2024-04-07T07:34:42.980Z,64.82
2024-04-07T07:35:43.083Z,62.95
2024-04-07T07:36:43.160Z,62.34
2024-04-07T07:37:43.239Z,59.50
2024-04-07T07:38:43.360Z,60.38
2024-04-07T07:39:43.422Z,56.65
2024-04-07T07:40:43.518Z,56.18
2024-04-07T07:41:43.597Z,57.73
2024-04-07T07:42:43.694Z,58.59
2024-04-07T07:43:43.784Z,57.51
2024-04-07T07:44:43.886Z,60.33
2024-04-07T07:45:43.975Z,63.45
2024-04-07T07:46:44.107Z,62.93
2024-04-07T07:47:44.130Z,62.86
2024-04-07T07:48:44.240Z,62.53
2024-04-07T07:49:44.288Z,63.34
2024-04-07T07:50:44.396Z,64.48
2024-04-07T07:51:44.512Z,67.26
2024-04-07T07:52:44.574Z,64.29
2024-04-07T07:53:44.668Z,64.37
2024-04-07T07:54:44.725Z,65.59
2024-04-07T07:55:44.804Z,65.97
2024-04-07T07:56:44.904Z,63.29
2024-04-07T07:57:44.980Z,63.02
2024-04-07T07:58:45.055Z,64.68
2024-04-07T07:59:45.135Z,62.94
2024-04-07T08:00:45.216Z,62.84
2024-04-07T08:01:45.313Z,62.10
2024-04-07T08:02:45.377Z,59.92
2024-04-07T08:03:45.515Z,59.73
2024-04-07T08:04:45.565Z,61.83
2024-04-07T08:05:45.641Z,60.94
2024-04-07T08:06:45.995Z,62.75
2024-04-07T08:07:45.806Z,65.87
2024-04-07T08:08:45.876Z,62.09
2024-04-07T08:09:45.961Z,63.59
2024-04-07T08:10:46.052Z,58.75
2024-04-07T08:11:46.110Z,57.65
2024-04-07T08:12:46.187Z,55.92
2024-04-07T08:13:46.241Z,52.52
2024-04-07T08:14:46.335Z,57.64
2024-04-07T08:15:46.420Z,56.03
2024-04-07T08:16:46.536Z,55.06
2024-04-07T08:17:46.578Z,56.19
2024-04-07T08:18:46.672Z,58.00
2024-04-07T08:19:46.752Z,57.12
2024-04-07T08:20:46.838Z,55.94
2024-04-07T08:21:46.908Z,50.06
2024-04-07T08:22:46.986Z,52.93
2024-04-07T08:23:47.057Z,52.00
2024-04-07T08:24:47.137Z,53.10
2024-04-07T08:25:47.253Z,55.84
2024-04-07T08:26:47.314Z,52.66
2024-04-07T08:27:47.361Z,52.88
2024-04-07T08:28:47.448Z,53.67
2024-04-07T08:29:47.527Z,54.80
2024-04-07T08:30:47.604Z,55.94
2024-04-07T08:31:47.666Z,56.65
2024-04-07T08:32:47.768Z,54.15
2024-04-07T08:33:47.844Z,56.40
2024-04-07T08:34:47.928Z,59.20
2024-04-07T08:35:47.991Z,59.77
2024-04-07T08:36:48.066Z,56.89
2024-04-07T08:37:48.162Z,56.71
2024-04-07T08:38:48.259Z,55.83
2024-04-07T08:39:48.325Z,53.98
2024-04-07T08:40:48.406Z,52.76
2024-04-07T08:41:48.499Z,58.24
2024-04-07T08:42:48.581Z,58.22
2024-04-07T08:43:48.706Z,56.89
2024-04-07T08:44:48.763Z,54.72
2024-04-07T08:45:48.821Z,55.43
2024-04-07T08:46:48.940Z,53.89
2024-04-07T08:47:49.018Z,53.66
2024-04-07T08:48:49.087Z,53.81
2024-04-07T08:49:49.176Z,55.44
2024-04-07T08:50:49.262Z,58.00
2024-04-07T08:51:49.377Z,57.85
2024-04-07T08:52:49.445Z,55.49
2024-04-07T08:53:49.543Z,56.57
2024-04-07T08:54:49.613Z,58.48
2024-04-07T08:55:49.674Z,56.37
2024-04-07T08:56:49.792Z,57.30
2024-04-07T08:57:49.882Z,59.29
2024-04-07T08:58:49.974Z,59.85
2024-04-07T08:59:50.062Z,58.59
2024-04-07T09:00:50.148Z,60.33
2024-04-07T09:01:50.260Z,61.69
2024-04-07T09:02:50.302Z,58.23
2024-04-07T09:03:50.412Z,58.58
2024-04-07T09:04:50.542Z,60.36
2024-04-07T09:05:50.617Z,57.03
2024-04-07T09:06:50.706Z,60.27
2024-04-07T09:07:50.810Z,61.01
2024-04-07T09:08:50.895Z,60.11
2024-04-07T09:09:50.968Z,62.04
2024-04-07T09:10:51.095Z,60.47
2024-04-07T09:11:51.522Z,62.57
2024-04-07T09:12:51.319Z,59.18
2024-04-07T09:13:51.435Z,59.89
2024-04-07T09:14:51.509Z,60.40
2024-04-07T09:15:51.601Z,61.88
2024-04-07T09:16:51.692Z,61.43
2024-04-07T09:17:51.781Z,65.57
2024-04-07T09:18:51.878Z,63.56
2024-04-07T09:19:51.929Z,64.11
2024-04-07T09:20:52.023Z,65.96
2024-04-07T09:21:52.115Z,66.41
2024-04-07T09:22:52.199Z,60.65
2024-04-07T09:23:52.280Z,62.67
2024-04-07T09:24:52.381Z,58.53
2024-04-07T09:25:52.491Z,55.62
2024-04-07T09:26:52.701Z,56.92
2024-04-07T09:27:52.801Z,54.80
2024-04-07T09:28:52.944Z,51.34
2024-04-07T09:29:53.083Z,52.20
2024-04-07T09:30:53.216Z,51.64
2024-04-07T09:31:53.320Z,50.29
2024-04-07T09:32:53.408Z,51.75
2024-04-07T09:33:53.476Z,51.77
2024-04-07T09:34:53.595Z,51.97
2024-04-07T09:35:53.699Z,51.57
2024-04-07T09:36:53.757Z,51.12
2024-04-07T09:37:53.959Z,51.30
2024-04-07T09:38:53.949Z,50.00
2024-04-07T09:39:54.029Z,51.25
2024-04-07T09:40:54.118Z,50.42
2024-04-07T09:41:54.229Z,50.00
2024-04-07T09:42:54.345Z,50.89
2024-04-07T09:43:54.438Z,52.57
2024-04-07T09:44:54.540Z,52.94
2024-04-07T09:45:54.617Z,54.67
2024-04-07T09:46:54.729Z,52.90
2024-04-07T09:47:54.796Z,53.42
2024-04-07T09:48:54.879Z,53.62
2024-04-07T09:49:55.017Z,56.49
2024-04-07T09:50:55.114Z,59.01
2024-04-07T09:51:55.226Z,59.35
2024-04-07T09:52:55.269Z,58.66
2024-04-07T09:53:55.357Z,59.04
2024-04-07T09:54:55.463Z,58.13
2024-04-07T09:55:55.538Z,59.31
2024-04-07T09:56:55.632Z,59.66
2024-04-07T09:57:55.724Z,58.46
2024-04-07T09:58:55.811Z,57.48
2024-04-07T09:59:55.898Z,57.29
2024-04-07T10:00:56.006Z,60.28
2024-04-07T10:01:56.120Z,59.13
2024-04-07T10:02:56.138Z,58.67
2024-04-07T10:03:56.228Z,59.68
2024-04-07T10:04:56.328Z,58.73
2024-04-07T10:05:56.419Z,61.34
2024-04-07T10:06:56.510Z,62.94
2024-04-07T10:07:56.596Z,61.53
2024-04-07T10:08:56.663Z,63.45
2024-04-07T10:09:56.734Z,63.03
2024-04-07T10:11:04.680Z,66.12
2024-04-07T10:11:58.102Z,65.31
2024-04-07T10:12:56.802Z,62.64
2024-04-07T10:13:56.817Z,66.14
2024-04-07T10:14:56.813Z,65.88
2024-04-07T10:15:56.802Z,66.58
2024-04-07T10:16:56.830Z,68.57
2024-04-07T10:17:56.833Z,67.28
2024-04-07T10:18:56.840Z,67.71
2024-04-07T10:19:56.867Z,62.43
2024-04-07T10:20:56.839Z,63.04
2024-04-07T10:21:56.817Z,64.95
2024-04-07T10:22:56.899Z,64.75
2024-04-07T10:23:56.934Z,64.54
2024-04-07T10:24:56.973Z,64.16
2024-04-07T10:25:57.093Z,64.89
2024-04-07T10:26:57.091Z,64.56
2024-04-07T10:27:57.168Z,64.58
2024-04-07T10:28:57.366Z,64.28
2024-04-07T10:29:57.393Z,63.74
2024-04-07T10:30:57.531Z,67.62
2024-04-07T10:31:57.676Z,66.94
2024-04-07T10:32:57.811Z,65.54
2024-04-07T10:33:57.881Z,69.87
2024-04-07T10:34:57.966Z,70.13
2024-04-07T10:35:58.048Z,71.10
2024-04-07T10:36:58.104Z,71.79
2024-04-07T10:37:58.188Z,71.35
2024-04-07T10:38:58.250Z,72.33
2024-04-07T10:39:58.329Z,73.47
2024-04-07T10:40:58.408Z,69.36
2024-04-07T10:41:58.498Z,73.51
2024-04-07T10:42:58.560Z,70.99
2024-04-07T10:43:58.637Z,69.05
2024-04-07T10:44:58.716Z,69.40
2024-04-07T10:45:58.759Z,71.96
2024-04-07T10:46:58.819Z,73.54
2024-04-07T10:47:58.945Z,69.63
2024-04-07T10:48:59.027Z,71.79
2024-04-07T10:49:59.099Z,72.57
2024-04-07T10:50:59.194Z,72.13
2024-04-07T10:51:59.254Z,72.34
2024-04-07T10:52:59.369Z,71.83
2024-04-07T10:53:59.409Z,73.43
2024-04-07T10:54:59.481Z,75.18
2024-04-07T10:55:59.573Z,76.37
2024-04-07T10:56:59.689Z,78.41
2024-04-07T10:57:59.773Z,77.84
2024-04-07T10:58:59.840Z,77.02
2024-04-07T10:59:59.897Z,77.41
2024-04-07T11:00:59.988Z,71.11
2024-04-07T11:02:00.081Z,71.73
2024-04-07T11:03:00.227Z,72.22
2024-04-07T11:04:00.186Z,71.97
2024-04-07T11:05:00.294Z,73.78
2024-04-07T11:06:00.319Z,70.80
2024-04-07T11:07:00.409Z,70.68
2024-04-07T11:08:00.554Z,70.21
2024-04-07T11:09:00.614Z,73.12
2024-04-07T11:10:00.674Z,74.93
2024-04-07T11:11:00.749Z,71.78
2024-04-07T11:12:00.837Z,74.94
2024-04-07T11:13:00.900Z,76.87
2024-04-07T11:14:00.984Z,76.66
2024-04-07T11:15:01.036Z,79.71
2024-04-07T11:16:01.131Z,80.90
2024-04-07T11:17:01.285Z,82.67
2024-04-07T11:18:01.254Z,80.91
2024-04-07T11:19:01.356Z,81.52
2024-04-07T11:20:01.440Z,79.70
2024-04-07T11:21:01.482Z,81.79
2024-04-07T11:22:01.602Z,81.25
2024-04-07T11:23:01.677Z,81.57
2024-04-07T11:24:01.721Z,81.77
2024-04-07T11:25:01.772Z,83.25
2024-04-07T11:26:01.876Z,82.90
2024-04-07T11:27:01.935Z,85.22
2024-04-07T11:28:02.072Z,85.60
2024-04-07T11:29:02.171Z,86.18
2024-04-07T11:30:02.247Z,85.66
2024-04-07T11:31:02.374Z,86.77
2024-04-07T11:32:08.082Z,85.24
2024-04-07T11:33:03.440Z,85.27
2024-04-07T11:34:02.448Z,83.54
2024-04-07T11:35:02.473Z,85.13
2024-04-07T11:36:02.477Z,85.48
2024-04-07T11:37:02.439Z,86.53
2024-04-07T11:38:02.485Z,85.05
2024-04-07T11:39:02.472Z,85.26
2024-04-07T11:40:02.496Z,89.04
2024-04-07T11:41:02.516Z,89.40
2024-04-07T11:42:02.499Z,89.02
2024-04-07T11:43:02.511Z,88.79
2024-04-07T11:44:02.555Z,86.85
2024-04-07T11:45:02.662Z,87.59
2024-04-07T11:46:02.697Z,87.75
2024-04-07T11:47:02.794Z,85.15
2024-04-07T11:48:02.869Z,82.06
2024-04-07T11:49:02.930Z,85.16
2024-04-07T11:50:03.038Z,82.62
2024-04-07T11:51:03.107Z,82.59
2024-04-07T11:52:03.208Z,82.91
2024-04-07T11:53:03.314Z,86.01
2024-04-07T11:54:03.354Z,84.37
2024-04-07T11:55:03.442Z,83.04
2024-04-07T11:56:03.591Z,82.62
2024-04-07T11:57:03.663Z,83.29
2024-04-07T11:58:03.742Z,81.80
2024-04-07T11:59:03.829Z,81.09
2024-04-07T12:00:03.891Z,83.38
2024-04-07T12:01:03.963Z,86.28
2024-04-07T12:02:04.025Z,83.32
2024-04-07T12:03:04.142Z,83.11
2024-04-07T12:04:04.226Z,83.77
2024-04-07T12:05:06.182Z,84.55
2024-04-07T12:06:04.305Z,84.38
2024-04-07T12:07:04.298Z,88.82
2024-04-07T12:08:04.323Z,85.80
2024-04-07T12:09:04.295Z,86.95
2024-04-07T12:10:04.275Z,86.76
2024-04-07T12:11:04.320Z,89.50
2024-04-07T12:12:04.301Z,90.13
2024-04-07T12:13:04.315Z,91.73
2024-04-07T12:14:04.343Z,89.96
2024-04-07T12:15:04.322Z,88.82
2024-04-07T12:16:04.291Z,87.26
2024-04-07T12:17:04.323Z,89.23
2024-04-07T12:18:04.301Z,87.59
2024-04-07T12:19:04.314Z,87.37
2024-04-07T12:20:04.332Z,88.16
2024-04-07T12:21:04.313Z,89.52
2024-04-07T12:22:04.324Z,90.74
2024-04-07T12:23:04.370Z,91.18
2024-04-07T12:24:04.319Z,88.84
2024-04-07T12:25:04.316Z,89.45
2024-04-07T12:26:04.385Z,88.58
2024-04-07T12:27:04.346Z,90.24
2024-04-07T12:28:04.343Z,90.18
2024-04-07T12:29:04.384Z,89.39
2024-04-07T12:30:04.330Z,90.79
2024-04-07T12:31:04.337Z,91.84
2024-04-07T12:32:04.339Z,91.51
2024-04-07T12:33:04.341Z,93.38
2024-04-07T12:34:04.356Z,90.53
2024-04-07T12:35:04.354Z,91.87
2024-04-07T12:36:04.345Z,93.27
2024-04-07T12:37:04.369Z,91.64
2024-04-07T12:38:04.363Z,92.51
2024-04-07T12:39:04.348Z,90.53
2024-04-07T12:40:04.348Z,92.11
2024-04-07T12:41:04.382Z,91.38
2024-04-07T12:42:04.373Z,92.60
2024-04-07T12:43:04.363Z,93.46
2024-04-07T12:44:04.418Z,91.97
2024-04-07T12:45:04.467Z,91.66
2024-04-07T12:46:04.532Z,90.38
2024-04-07T12:47:04.649Z,87.85
2024-04-07T12:48:04.689Z,85.84
2024-04-07T12:49:04.783Z,84.51
2024-04-07T12:50:04.882Z,84.08
2024-04-07T12:51:04.930Z,85.79
2024-04-07T12:52:05.087Z,86.56